Time;durP1;ratioP1;P1;durP2;ratioP2;P2;SDS_P1;SDS_P2;PMS_P1;PMS_P2;Temp;Humidity;BMP_temperature;BMP_pressure;BME280_temperature;BME280_humidity;BME280_pressure;Samples;Min_cycle;Max_cycle;Signal;HPM_P1;HPM_P2
2023/05/02 00:02:14;;;;;;;12.32;3.92;;;8.60;99.90;;;7.24;75.87;100867.78;5005517;28;20046;-76
2023/05/02 00:04:40;;;;;;;10.00;4.47;;;8.50;99.90;;;7.12;76.43;100871.63;5009828;28;20169;-76
2023/05/02 00:07:06;;;;;;;9.68;4.18;;;8.50;99.90;;;7.07;77.61;100870.91;5007092;28;20173;-77
2023/05/02 00:09:32;;;;;;;8.52;3.75;;;8.40;99.90;;;7.12;77.95;100876.88;5007293;28;20414;-76
2023/05/02 00:11:57;;;;;;;13.65;5.57;;;8.50;99.90;;;7.22;78.52;100874.84;5005668;28;20068;-76
2023/05/02 00:14:24;;;;;;;10.95;3.85;;;8.60;99.90;;;7.36;77.71;100874.41;5006401;28;20027;-77
2023/05/02 00:16:49;;;;;;;9.93;2.83;;;8.70;99.90;;;7.44;77.29;100875.03;5006609;28;20038;-76
2023/05/02 00:19:15;;;;;;;12.55;3.67;;;8.80;99.90;;;7.52;76.74;100873.03;4991528;28;20072;-76
2023/05/02 00:21:41;;;;;;;10.02;3.70;;;8.80;99.90;;;7.55;76.61;100880.78;5009218;28;20167;-76
2023/05/02 00:24:07;;;;;;;10.15;3.72;;;8.80;99.90;;;7.57;75.73;100880.75;5006026;28;20035;-76
2023/05/02 00:26:32;;;;;;;7.47;3.78;;;8.80;99.90;;;7.52;75.64;100880.91;5004726;28;20040;-76
2023/05/02 00:28:59;;;;;;;13.07;4.20;;;8.80;99.90;;;7.50;75.53;100881.84;5009191;28;20040;-76
2023/05/02 00:31:25;;;;;;;6.75;3.78;;;8.80;99.90;;;7.46;75.05;100877.63;4991179;28;20116;-76
2023/05/02 00:33:51;;;;;;;14.70;4.47;;;8.80;99.90;;;7.44;75.54;100876.81;4992061;28;20036;-76
2023/05/02 00:36:18;;;;;;;9.20;3.75;;;8.70;99.90;;;7.38;75.63;100875.22;5022034;28;20618;-76
2023/05/02 00:38:45;;;;;;;6.80;3.80;;;8.70;99.90;;;7.35;75.72;100872.72;5021766;28;20044;-76
2023/05/02 00:41:11;;;;;;;9.48;3.80;;;8.70;99.90;;;7.32;75.79;100870.16;5021861;28;20552;-76
2023/05/02 00:43:39;;;;;;;11.32;3.63;;;8.60;99.90;;;7.26;76.13;100875.63;5006962;28;20140;-76
2023/05/02 00:46:06;;;;;;;9.77;3.90;;;8.60;99.90;;;7.21;76.26;100873.09;5024218;28;20112;-76
2023/05/02 00:48:33;;;;;;;9.85;4.35;;;8.50;99.90;;;7.25;76.77;100876.50;5004856;28;20038;-76
2023/05/02 00:51:05;;;;;;;10.02;3.97;;;8.50;99.90;;;7.22;77.29;100879.22;5005750;28;20033;-76
2023/05/02 00:53:31;;;;;;;12.50;4.28;;;8.50;99.90;;;7.19;77.17;100885.38;5006242;28;20450;-76
2023/05/02 00:55:58;;;;;;;12.40;4.40;;;8.40;99.90;;;7.17;77.48;100880.22;5022221;28;20030;-76
2023/05/02 00:58:25;;;;;;;13.63;4.75;;;8.40;99.90;;;7.14;77.67;100882.06;5007756;28;20346;-76
2023/05/02 01:01:15;;;;;;;19.38;5.20;;;8.40;99.90;;;7.08;77.61;100877.00;5005264;28;20760;-76
2023/05/02 01:04:07;;;;;;;9.38;4.93;;;8.30;99.90;;;7.02;77.87;100869.31;5004481;28;20598;-76
2023/05/02 01:07:01;;;;;;;15.43;5.10;;;8.30;99.90;;;6.97;78.55;100872.09;5027705;28;20057;-76
2023/05/02 01:10:08;;;;;;;11.75;4.80;;;8.20;99.90;;;6.85;79.18;100881.16;5011724;28;20069;-76
2023/05/02 01:12:42;;;;;;;7.32;4.43;;;8.10;99.90;;;6.72;79.33;100878.03;5019533;28;20107;-76
2023/05/02 01:15:15;;;;;;;11.60;5.00;;;8.10;99.90;;;6.68;79.21;100883.41;5008498;28;20037;-76
2023/05/02 01:17:43;;;;;;;11.13;4.10;;;8.00;99.90;;;6.62;79.56;100875.72;5009494;28;20026;-76
2023/05/02 01:20:14;;;;;;;10.57;4.43;;;7.90;99.90;;;6.61;79.87;100881.84;5010896;28;20460;-76
2023/05/02 01:22:41;;;;;;;8.98;4.82;;;8.00;99.90;;;6.65;80.09;100876.50;5007601;28;20025;-76
2023/05/02 01:25:15;;;;;;;14.05;4.63;;;8.00;99.90;;;6.69;80.09;100885.94;5006638;28;20045;-76
2023/05/02 01:27:50;;;;;;;16.95;4.93;;;8.00;99.90;;;6.71;79.91;100878.91;5022395;28;20500;-76
2023/05/02 01:30:19;;;;;;;13.55;5.03;;;7.90;99.90;;;6.70;80.05;100885.06;4999253;28;20041;-76
2023/05/02 01:32:48;;;;;;;11.35;4.80;;;8.00;99.90;;;6.69;80.24;100882.50;5020546;28;20157;-76
2023/05/02 01:35:16;;;;;;;11.25;5.10;;;8.00;99.90;;;6.66;79.92;100877.34;5003294;28;20038;-76
2023/05/02 01:37:45;;;;;;;13.20;5.78;;;7.90;99.90;;;6.61;80.42;100881.84;5004715;28;20056;-76
2023/05/02 01:40:16;;;;;;;9.80;5.05;;;7.90;99.90;;;6.58;81.59;100882.78;5006950;28;20065;-77
2023/05/02 01:42:44;;;;;;;18.50;5.90;;;7.90;99.90;;;6.57;83.10;100881.94;5022248;28;20046;-76
2023/05/02 01:45:12;;;;;;;10.07;5.93;;;7.90;99.90;;;6.56;83.88;100895.06;5007798;28;20038;-76
2023/05/02 01:47:42;;;;;;;17.48;7.22;;;7.90;99.90;;;6.55;84.37;100893.34;5003367;28;20034;-76
2023/05/02 01:50:12;;;;;;;14.32;6.80;;;7.90;99.90;;;6.54;84.56;100891.63;5007727;28;20530;-76
2023/05/02 01:52:40;;;;;;;16.20;6.90;;;7.80;99.90;;;6.52;84.73;100896.91;5021589;28;20049;-76
2023/05/02 01:55:12;;;;;;;16.35;7.60;;;7.80;99.90;;;6.49;84.08;100891.75;5010552;28;20049;-76
2023/05/02 01:57:41;;;;;;;18.02;7.57;;;7.80;99.90;;;6.47;83.52;100887.47;5011613;28;20034;-76
2023/05/02 02:00:08;;;;;;;15.77;7.45;;;7.70;99.90;;;6.46;83.22;100893.59;4993181;28;20072;-76
2023/05/02 02:02:36;;;;;;;16.42;6.50;;;7.70;99.90;;;6.44;83.44;100898.88;5007185;28;20052;-76
2023/05/02 02:05:04;;;;;;;16.50;6.50;;;7.70;99.90;;;6.44;82.61;100901.47;5009875;28;20056;-76
2023/05/02 02:07:30;;;;;;;17.55;6.90;;;7.70;99.90;;;6.47;82.68;100903.16;5009862;28;20030;-76
2023/05/02 02:09:56;;;;;;;19.63;8.00;;;7.70;99.90;;;6.52;83.07;100906.50;5017651;28;20037;-76
2023/05/02 02:12:44;;;;;;;16.38;7.50;;;7.70;99.90;;;6.55;82.85;100907.28;5010554;28;20033;-76
2023/05/02 02:15:27;;;;;;;13.48;6.90;;;7.70;99.90;;;6.53;82.53;100905.63;5009631;28;20467;-76
2023/05/02 02:17:59;;;;;;;16.02;6.18;;;7.70;99.90;;;6.54;82.68;100902.09;5026305;28;20108;-76
2023/05/02 02:20:30;;;;;;;11.43;6.43;;;7.80;99.90;;;6.55;82.87;100911.66;5010906;28;20045;-76
2023/05/02 02:22:59;;;;;;;15.95;6.82;;;7.80;99.90;;;6.56;82.94;100911.59;5007589;28;20167;-76
2023/05/02 02:25:26;;;;;;;18.52;6.90;;;7.80;99.90;;;6.59;83.23;100921.16;5008273;28;20107;-76
2023/05/02 02:27:53;;;;;;;13.38;5.82;;;7.80;99.90;;;6.57;83.27;100929.03;5026340;28;20034;-77
2023/05/02 02:30:18;;;;;;;19.52;6.43;;;7.80;99.90;;;6.53;83.53;100929.16;5024270;28;20456;-75
2023/05/02 02:32:44;;;;;;;16.42;6.50;;;7.80;99.90;;;6.54;82.90;100936.09;5010584;28;20026;-76
2023/05/02 02:35:10;;;;;;;15.00;7.40;;;7.80;99.90;;;6.47;83.39;100931.94;5009161;28;20034;-76
2023/05/02 02:38:10;;;;;;;20.58;6.95;;;7.80;99.90;;;6.50;83.58;100929.22;5011402;28;20026;-76
2023/05/02 02:40:54;;;;;;;17.00;6.85;;;7.70;99.90;;;6.51;83.62;100929.19;5005487;28;20069;-76
2023/05/02 02:43:39;;;;;;;16.15;7.00;;;7.80;99.90;;;6.52;84.16;100930.91;5030110;28;20037;-76
2023/05/02 02:46:20;;;;;;;19.15;6.90;;;7.80;99.90;;;6.49;84.87;100930.97;5008222;28;20041;-76
2023/05/02 02:49:15;;;;;;;20.55;8.25;;;7.70;99.90;;;6.44;85.13;100935.50;5015500;28;20065;-76
2023/05/02 02:51:52;;;;;;;17.65;7.90;;;7.70;99.90;;;6.38;85.99;100940.03;5022882;28;20037;-76
2023/05/02 02:54:48;;;;;;;19.73;6.85;;;7.70;99.90;;;6.32;86.39;100941.03;5026176;28;20042;-76
2023/05/02 02:57:38;;;;;;;20.77;7.45;;;7.60;99.90;;;6.31;86.91;100947.16;5004184;28;20643;-76
2023/05/02 03:00:15;;;;;;;14.15;6.68;;;7.60;99.90;;;6.35;87.57;100949.66;5003171;28;20069;-76
2023/05/02 03:02:42;;;;;;;16.02;6.47;;;7.60;99.90;;;6.38;88.39;100953.09;5009974;28;21415;-76
2023/05/02 03:05:10;;;;;;;13.00;6.88;;;7.70;99.90;;;6.44;88.80;100960.78;5008436;28;20041;-76
2023/05/02 03:07:36;;;;;;;15.45;7.05;;;7.70;99.90;;;6.47;88.58;100956.31;5007917;28;20527;-76
2023/05/02 03:10:05;;;;;;;16.50;6.82;;;7.70;99.90;;;6.52;88.70;100958.81;5009814;28;20045;-76
2023/05/02 03:12:31;;;;;;;16.65;7.55;;;7.80;99.90;;;6.55;88.72;100956.13;5009404;28;20041;-76
2023/05/02 03:15:23;;;;;;;24.00;7.40;;;7.80;99.90;;;6.60;88.38;100964.72;5010283;28;20465;-77
2023/05/02 03:17:49;;;;;;;14.52;7.25;;;7.90;99.90;;;6.62;89.03;100957.69;5010079;28;20030;-76
2023/05/02 03:20:15;;;;;;;22.38;8.88;;;7.90;99.90;;;6.67;89.28;100961.03;5013400;28;20072;-76
2023/05/02 03:22:41;;;;;;;18.85;8.38;;;8.00;99.90;;;6.71;90.24;100960.03;5000401;28;20030;-76
2023/05/02 03:25:07;;;;;;;17.90;7.38;;;8.00;99.90;;;6.73;91.25;100966.09;5007562;28;20034;-76
2023/05/02 03:27:33;;;;;;;11.52;5.72;;;8.00;99.90;;;6.81;92.59;100965.91;5028267;28;20565;-76
2023/05/02 03:29:59;;;;;;;19.58;9.68;;;8.10;99.90;;;6.88;93.02;100971.81;5011054;28;20038;-76
2023/05/02 03:32:26;;;;;;;17.67;8.98;;;8.20;99.90;;;6.95;92.92;100984.72;5008716;28;20126;-77
2023/05/02 03:34:57;;;;;;;16.73;7.82;;;8.30;99.90;;;6.95;92.74;100986.47;4999829;28;20036;-76
2023/05/02 03:37:23;;;;;;;16.00;8.50;;;8.30;99.90;;;6.95;92.74;100994.31;5025026;28;20113;-76
2023/05/02 03:39:49;;;;;;;15.27;6.95;;;8.30;99.90;;;6.92;92.29;101004.88;5026244;28;20045;-77
2023/05/02 03:42:16;;;;;;;16.60;7.82;;;8.30;99.90;;;6.92;91.85;101000.50;5009111;28;20084;-77
2023/05/02 03:44:42;;;;;;;14.30;6.60;;;8.30;99.90;;;6.88;92.21;101013.72;5007777;28;20415;-77
2023/05/02 03:47:08;;;;;;;21.63;7.97;;;8.20;99.90;;;6.84;92.14;101012.06;5008109;28;20045;-76
2023/05/02 03:49:35;;;;;;;16.63;8.77;;;8.20;99.90;;;6.77;93.20;101014.00;5024528;28;20029;-76
2023/05/02 03:52:01;;;;;;;15.15;8.43;;;8.20;99.90;;;6.74;94.43;101025.41;5009054;28;20041;-76
2023/05/02 03:54:26;;;;;;;24.90;10.88;;;8.20;99.90;;;6.78;96.49;101032.28;5010174;28;20452;-76
2023/05/02 03:56:55;;;;;;;17.65;8.30;;;8.20;99.90;;;6.84;97.62;101030.41;5026248;28;25118;-76
2023/05/02 03:59:21;;;;;;;30.65;14.15;;;8.20;99.90;;;6.97;98.83;101039.63;5003362;28;20045;-76
2023/05/02 04:01:50;;;;;;;32.45;15.73;;;8.30;99.90;;;7.08;99.86;101042.81;5006988;28;20152;-76
2023/05/02 04:04:15;;;;;;;31.67;16.45;;;8.40;99.90;;;7.21;100.00;101038.09;5008563;28;20056;-77
2023/05/02 04:06:41;;;;;;;31.27;15.55;;;8.50;99.90;;;7.32;100.00;101046.56;5011155;28;20513;-76
2023/05/02 04:09:07;;;;;;;39.42;19.20;;;8.60;99.90;;;7.45;100.00;101033.09;5024341;28;20042;-77
2023/05/02 04:11:33;;;;;;;38.03;19.55;;;8.80;99.90;;;7.74;100.00;101040.09;5008896;28;20034;-76
2023/05/02 04:13:59;;;;;;;40.03;19.63;;;9.10;99.90;;;8.20;98.38;101039.53;5008236;28;20065;-76
2023/05/02 04:16:25;;;;;;;37.63;20.20;;;9.50;99.90;;;8.79;95.30;101054.28;5024329;28;20041;-77
2023/05/02 04:18:51;;;;;;;38.50;18.73;;;10.10;99.90;;;9.54;91.24;101058.63;5010583;28;20087;-76
2023/05/02 04:21:17;;;;;;;36.25;17.75;;;10.70;99.90;;;10.36;87.02;101064.28;5024359;28;20041;-77
2023/05/02 04:23:43;;;;;;;37.70;17.45;;;11.40;99.90;;;11.07;82.56;101083.25;5023096;28;20033;-76
2023/05/02 04:26:09;;;;;;;33.45;17.70;;;12.00;99.90;;;11.83;78.99;101087.84;5022511;28;20033;-77
2023/05/02 04:28:35;;;;;;;32.10;18.20;;;12.60;99.90;;;12.49;75.72;101082.94;5008891;28;20105;-77
2023/05/02 04:31:02;;;;;;;29.25;17.02;;;12.80;99.90;;;12.71;74.18;101087.19;5006446;28;20041;-77
2023/05/02 04:33:29;;;;;;;34.80;18.13;;;13.30;99.90;;;13.09;72.21;101093.19;5005695;28;20633;-77
2023/05/02 04:35:55;;;;;;;31.70;16.67;;;13.20;99.90;;;12.46;72.61;101088.41;5006750;28;20043;-77
2023/05/02 04:38:21;;;;;;;33.92;17.50;;;12.90;99.90;;;12.03;73.77;101084.28;5008023;28;20068;-77
2023/05/02 04:40:51;;;;;;;34.55;18.98;;;12.70;99.90;;;11.67;73.68;101091.19;5022685;28;20100;-77
2023/05/02 04:43:16;;;;;;;36.10;17.95;;;12.60;99.90;;;11.26;75.08;101080.69;5005765;28;20049;-77
2023/05/02 04:45:42;;;;;;;33.55;18.20;;;12.10;99.90;;;10.94;76.19;101086.50;5009308;28;20037;-77
2023/05/02 04:48:08;;;;;;;35.75;19.00;;;11.90;99.90;;;10.68;77.42;101084.03;5006728;28;20455;-77
2023/05/02 04:50:34;;;;;;;40.70;19.05;;;11.70;99.90;;;10.50;78.89;101087.41;5025263;28;20461;-77
2023/05/02 04:53:00;;;;;;;35.38;18.45;;;11.50;99.90;;;10.33;80.08;101085.47;5023392;28;20127;-77
2023/05/02 04:55:26;;;;;;;30.98;18.42;;;11.40;99.90;;;10.24;80.73;101085.81;5004388;28;20180;-77
2023/05/02 04:57:52;;;;;;;32.05;18.20;;;11.30;99.90;;;10.19;81.67;101083.31;5009909;28;20068;-77
2023/05/02 05:00:18;;;;;;;38.25;18.95;;;11.30;99.90;;;10.20;82.35;101089.47;5011061;28;20046;-76
2023/05/02 05:02:43;;;;;;;35.13;18.70;;;11.20;99.90;;;10.17;82.98;101092.19;5008436;28;20041;-77
2023/05/02 05:05:09;;;;;;;34.55;19.45;;;11.30;99.90;;;10.18;83.51;101088.66;5009276;28;20120;-77
2023/05/02 05:07:35;;;;;;;36.63;19.95;;;11.20;99.90;;;10.19;83.71;101095.63;5009969;28;20042;-77
2023/05/02 05:10:01;;;;;;;34.67;18.88;;;11.30;99.90;;;10.23;83.88;101097.22;5006195;28;20379;-77
2023/05/02 05:12:27;;;;;;;43.08;19.75;;;11.20;99.90;;;10.25;83.41;101098.88;5006961;28;20367;-77
2023/05/02 05:14:52;;;;;;;34.85;19.63;;;11.30;99.90;;;10.27;83.85;101111.97;5005171;28;20042;-77
2023/05/02 05:17:18;;;;;;;36.75;18.92;;;11.30;99.90;;;10.27;84.21;101112.84;5006356;28;20504;-77
2023/05/02 05:19:44;;;;;;;33.85;18.48;;;11.30;99.90;;;10.25;84.41;101114.66;5010353;28;20048;-78
2023/05/02 05:22:10;;;;;;;34.75;19.45;;;11.30;99.90;;;10.22;83.74;101112.16;5003806;28;20116;-77
2023/05/02 05:24:38;;;;;;;36.33;18.77;;;11.30;99.90;;;10.19;84.33;101120.16;5007152;28;20592;-77
2023/05/02 05:27:04;;;;;;;36.88;20.08;;;11.20;99.90;;;10.15;84.69;101126.50;5007990;28;20114;-77
2023/05/02 05:29:31;;;;;;;36.85;19.65;;;11.20;99.90;;;10.13;85.12;101125.69;5013726;28;20065;-76
2023/05/02 05:31:58;;;;;;;37.60;19.58;;;11.20;99.90;;;10.14;85.17;101131.81;5008400;28;20709;-77
2023/05/02 05:34:24;;;;;;;42.30;19.40;;;11.20;99.90;;;10.11;85.87;101130.16;5010202;28;20113;-77
2023/05/02 05:36:50;;;;;;;36.40;19.60;;;11.20;99.90;;;10.14;86.05;101142.34;5013719;28;22179;-77
2023/05/02 05:39:16;;;;;;;39.35;20.85;;;11.20;99.90;;;10.18;86.71;101139.53;5012288;28;20102;-76
2023/05/02 05:41:42;;;;;;;39.85;21.08;;;11.20;99.90;;;10.19;86.40;101141.22;5013585;28;20304;-77
2023/05/02 05:44:08;;;;;;;38.10;20.13;;;11.20;99.90;;;10.18;87.46;101142.16;5010438;28;20045;-76
2023/05/02 05:46:33;;;;;;;41.15;21.95;;;11.20;99.90;;;10.18;87.37;101152.69;5010698;28;20029;-77
2023/05/02 05:49:00;;;;;;;41.83;21.50;;;11.20;99.90;;;10.20;87.30;101157.88;5018287;28;20029;-77
2023/05/02 05:51:27;;;;;;;39.60;21.88;;;11.30;99.90;;;10.21;87.85;101162.22;5029535;28;20041;-77
2023/05/02 05:53:53;;;;;;;42.05;22.75;;;11.30;99.90;;;10.13;88.41;101162.53;5010049;28;20076;-77
2023/05/02 05:56:18;;;;;;;45.25;21.45;;;11.20;99.90;;;10.09;89.37;101167.97;4993824;28;20473;-77
2023/05/02 05:58:44;;;;;;;39.13;21.17;;;11.20;99.90;;;9.99;91.07;101165.66;5010532;28;20049;-77
2023/05/02 06:01:10;;;;;;;39.28;18.67;;;11.10;99.90;;;9.93;92.36;101175.56;4996120;28;20041;-77
2023/05/02 06:03:36;;;;;;;26.73;12.93;;;11.10;99.90;;;9.87;93.71;101176.66;5009901;28;20441;-76
2023/05/02 06:06:03;;;;;;;32.28;15.23;;;11.00;99.90;;;9.74;95.53;101185.88;5010763;28;20025;-77
2023/05/02 06:08:29;;;;;;;24.70;12.10;;;10.90;99.90;;;9.55;98.30;101186.53;5010591;28;20053;-77
2023/05/02 06:10:54;;;;;;;20.73;7.40;;;10.80;99.90;;;9.39;100.00;101190.59;5009725;28;20064;-76
2023/05/02 06:13:20;;;;;;;14.57;6.68;;;10.70;99.90;;;9.34;100.00;101190.75;5011457;28;20033;-76
2023/05/02 06:15:46;;;;;;;15.52;6.15;;;10.70;99.90;;;9.26;100.00;101205.06;5002543;28;20499;-76
2023/05/02 06:18:13;;;;;;;15.77;6.47;;;10.60;99.90;;;9.22;100.00;101214.81;5034791;28;20112;-76
2023/05/02 06:20:39;;;;;;;22.08;7.22;;;10.50;99.90;;;9.11;100.00;101222.19;5011204;28;20045;-76
2023/05/02 06:23:05;;;;;;;13.05;4.25;;;10.40;99.90;;;8.95;100.00;101227.09;5009896;28;20054;-76
2023/05/02 06:25:32;;;;;;;15.15;3.80;;;10.30;99.90;;;8.80;100.00;101233.69;5010120;28;20161;-77
2023/05/02 06:27:58;;;;;;;23.83;5.38;;;10.20;99.90;;;8.79;100.00;101234.56;5023883;28;20029;-77
2023/05/02 06:30:24;;;;;;;20.67;6.40;;;10.10;99.90;;;8.78;100.00;101246.84;5026708;28;20384;-75
2023/05/02 06:32:50;;;;;;;32.13;8.20;;;10.20;99.90;;;8.94;100.00;101246.38;5010993;28;20038;-77
2023/05/02 06:35:15;;;;;;;28.63;6.65;;;10.30;99.90;;;9.11;100.00;101251.94;5024363;28;20125;-76
2023/05/02 06:37:44;;;;;;;26.88;6.15;;;10.30;99.90;;;9.07;100.00;101252.97;5017901;28;20034;-77
2023/05/02 06:40:10;;;;;;;25.20;6.75;;;10.40;99.90;;;9.20;100.00;101259.56;4994881;28;20060;-77
2023/05/02 06:42:36;;;;;;;27.15;5.82;;;10.50;99.90;;;9.41;99.67;101267.63;4990204;28;20026;-76
2023/05/02 06:45:02;;;;;;;18.33;4.20;;;10.60;99.90;;;9.74;97.59;101273.53;5009991;28;20728;-76
2023/05/02 06:47:28;;;;;;;26.85;5.47;;;10.70;99.90;;;9.65;95.38;101286.97;5000160;28;20040;-77
2023/05/02 06:49:55;;;;;;;41.17;6.68;;;10.80;99.90;;;9.85;93.42;101294.22;5007891;28;20042;-77
2023/05/02 06:52:21;;;;;;;25.67;5.10;;;11.00;99.90;;;9.92;91.87;101292.22;5007160;28;20041;-77
2023/05/02 06:54:47;;;;;;;26.88;5.03;;;11.00;99.90;;;9.90;91.02;101294.91;5010085;28;20540;-77
2023/05/02 06:57:13;;;;;;;21.25;3.88;;;11.00;99.90;;;9.78;90.05;101303.19;5009217;28;20072;-76
2023/05/02 06:59:38;;;;;;;32.30;4.68;;;10.90;99.90;;;9.47;89.69;101296.34;5028507;28;20042;-77
2023/05/02 07:02:05;;;;;;;11.88;3.35;;;10.80;99.90;;;9.38;89.94;101315.06;5010289;28;20116;-76
2023/05/02 07:04:31;;;;;;;15.35;3.50;;;10.70;99.90;;;9.28;87.81;101313.63;5006180;28;20159;-75
2023/05/02 07:06:56;;;;;;;14.82;3.40;;;10.90;99.90;;;11.09;84.30;101342.31;5004813;28;20092;-76
2023/05/02 07:09:22;;;;;;;10.25;2.78;;;12.30;99.90;;;14.31;73.50;101359.53;5003837;28;20069;-75
2023/05/02 07:11:48;;;;;;;12.68;2.67;;;13.80;99.90;;;14.50;66.36;101364.72;5024006;28;20047;-76
2023/05/02 07:14:14;;;;;;;9.82;2.22;;;14.10;99.90;;;13.07;65.63;101354.13;5023325;28;20116;-76
2023/05/02 07:16:40;;;;;;;17.45;3.35;;;13.70;99.90;;;12.15;66.84;101350.34;5011011;28;20112;-76
2023/05/02 07:19:06;;;;;;;20.20;4.43;;;13.20;99.90;;;11.40;70.62;101356.97;5010895;28;20026;-76
2023/05/02 07:21:32;;;;;;;17.30;3.75;;;12.60;99.90;;;10.78;72.59;101350.56;5007854;28;20482;-76
2023/05/02 07:23:58;;;;;;;18.27;4.13;;;12.20;99.90;;;10.68;73.71;101357.06;5007006;28;20037;-75
2023/05/02 07:26:26;;;;;;;29.15;5.00;;;12.00;99.90;;;10.54;75.18;101352.31;5010549;28;20526;-75
2023/05/02 07:28:52;;;;;;;18.25;3.78;;;11.60;99.90;;;10.01;75.65;101362.94;5010265;28;20392;-75
2023/05/02 07:31:17;;;;;;;19.90;4.60;;;11.40;99.90;;;9.97;77.16;101364.78;4991255;28;20128;-75
2023/05/02 07:33:43;;;;;;;24.08;4.85;;;11.40;99.90;;;10.46;76.82;101378.06;5004610;28;20038;-75
2023/05/02 07:36:09;;;;;;;16.92;3.05;;;11.50;99.90;;;10.46;75.10;101378.91;5008960;28;20471;-75
2023/05/02 07:38:35;;;;;;;18.73;3.92;;;11.40;99.90;;;10.13;73.64;101377.44;5010471;28;20108;-76
2023/05/02 07:41:01;;;;;;;16.58;2.80;;;11.90;99.90;;;12.24;68.68;101408.03;5008309;28;21300;-75
2023/05/02 07:43:26;;;;;;;11.73;2.60;;;13.10;99.90;;;13.83;62.04;101417.53;5014411;28;20518;-75
2023/05/02 07:45:52;;;;;;;21.67;3.53;;;14.50;99.90;;;14.96;60.47;101437.34;5010583;28;20026;-76
2023/05/02 07:48:19;;;;;;;19.60;4.25;;;15.20;99.90;;;14.63;60.59;101436.50;5005946;28;20050;-76
2023/05/02 07:50:45;;;;;;;21.45;4.60;;;15.30;99.90;;;14.55;59.70;101442.19;5008200;28;20507;-76
2023/05/02 07:53:11;;;;;;;11.07;2.80;;;14.80;99.90;;;13.13;60.58;101429.66;5022539;28;20068;-75
2023/05/02 07:55:37;;;;;;;20.00;3.25;;;14.20;99.90;;;12.44;62.93;101423.03;5008281;28;20041;-75
2023/05/02 07:58:03;;;;;;;16.25;3.45;;;13.50;99.90;;;11.59;64.82;101412.44;5006444;28;20064;-75
2023/05/02 08:00:29;;;;;;;12.70;2.35;;;13.20;99.90;;;11.70;65.30;101425.19;5006843;28;20037;-75
2023/05/02 08:02:55;;;;;;;19.00;3.67;;;13.10;99.90;;;12.14;65.01;101433.13;5022744;28;20506;-76
2023/05/02 08:05:21;;;;;;;23.48;3.85;;;13.30;99.90;;;13.14;62.80;101452.53;5021732;28;20069;-75
2023/05/02 08:07:47;;;;;;;10.93;2.10;;;14.10;99.90;;;14.34;57.94;101466.19;5006768;28;20521;-76
2023/05/02 08:10:13;;;;;;;15.30;3.50;;;15.00;99.90;;;15.35;55.76;101481.22;5025558;28;20037;-76
2023/05/02 08:12:40;;;;;;;16.27;3.85;;;16.10;99.90;;;16.17;53.41;101500.59;5003763;28;20117;-76
2023/05/02 08:15:12;;;;;;;19.33;3.80;;;16.10;99.90;;;14.67;54.94;101485.78;5007909;28;20058;-76
2023/05/02 08:17:38;;;;;;;17.40;3.58;;;15.60;99.90;;;14.58;55.31;101489.75;5026588;28;20056;-76
2023/05/02 08:20:04;;;;;;;14.27;3.47;;;15.60;99.90;;;15.23;54.11;101508.44;5017473;28;20849;-76
2023/05/02 08:22:30;;;;;;;13.02;2.30;;;16.00;99.90;;;15.84;53.09;101524.63;5003514;28;20042;-77
2023/05/02 08:24:56;;;;;;;16.02;2.95;;;16.70;99.90;;;16.73;50.89;101548.72;4992610;28;20030;-76
2023/05/02 08:27:22;;;;;;;22.80;3.83;;;17.10;98.00;;;16.51;49.28;101554.47;5007158;28;20153;-75
2023/05/02 08:29:51;;;;;;;12.13;3.17;;;17.20;99.40;;;16.55;50.50;101556.00;5009029;28;20153;-74
2023/05/02 08:32:16;;;;;;;16.27;3.65;;;16.90;98.90;;;15.53;51.48;101543.09;5004042;28;20600;-75
2023/05/02 08:34:42;;;;;;;16.98;3.35;;;16.30;98.70;;;14.79;52.31;101550.56;4996793;28;20120;-76
2023/05/02 08:37:09;;;;;;;;;;;16.30;99.90;;;13.74;53.52;101540.59;5005746;28;20045;-75
2023/05/02 08:39:34;;;;;;;16.88;3.58;;;15.20;99.70;;;14.15;53.53;101553.66;5008418;28;19917;-76
2023/05/02 08:42:01;;;;;;;19.35;3.40;;;15.20;98.80;;;14.62;51.69;101556.69;5020582;28;20072;-76
2023/05/02 08:44:26;;;;;;;13.27;3.47;;;15.50;99.60;;;15.13;51.57;101566.44;5008552;28;20124;-75
2023/05/02 08:46:54;;;;;;;16.27;3.92;;;15.40;99.90;;;14.69;53.90;101566.94;5024316;28;20545;-76
2023/05/02 08:49:21;;;;;;;14.63;3.10;;;15.20;99.90;;;13.92;54.38;101561.84;4994960;28;20089;-75
2023/05/02 08:51:50;;;;;;;20.30;4.50;;;14.90;99.90;;;13.65;54.67;101570.16;5000136;28;20030;-75
2023/05/02 08:54:17;;;;;;;13.40;2.90;;;14.80;99.90;;;13.85;55.06;101574.50;5005663;28;20049;-74
2023/05/02 08:56:42;;;;;;;12.43;3.00;;;14.70;99.90;;;13.80;53.76;101586.22;5018998;28;20045;-75
2023/05/02 08:59:08;;;;;;;13.85;2.65;;;14.60;99.90;;;13.40;55.29;101572.19;5022914;28;20052;-75
2023/05/02 09:01:40;;;;;;;9.65;2.38;;;14.50;99.90;;;13.29;56.81;101576.16;5025274;28;20030;-75
2023/05/02 09:04:06;;;;;;;19.20;3.55;;;14.30;99.90;;;13.02;56.89;101582.63;5020223;28;20052;-76
2023/05/02 09:06:34;;;;;;;14.70;3.25;;;13.90;99.90;;;12.51;56.84;101593.53;5019787;28;20125;-76
2023/05/02 09:09:00;;;;;;;20.05;4.07;;;13.80;99.90;;;12.77;58.05;101590.75;5016494;28;20026;-75
2023/05/02 09:11:28;;;;;;;13.95;3.42;;;14.00;99.90;;;13.64;58.44;101613.41;4991680;28;20533;-77
2023/05/02 09:13:54;;;;;;;14.45;3.30;;;14.30;99.90;;;13.53;55.43;101610.38;5024883;28;20041;-75
2023/05/02 09:16:24;;;;;;;15.13;2.83;;;14.30;99.90;;;13.37;56.44;101615.50;5007371;28;20109;-74
2023/05/02 09:18:51;;;;;;;15.43;3.45;;;14.00;99.90;;;12.56;55.60;101605.72;5023062;28;20418;-75
2023/05/02 09:21:24;;;;;;;17.63;3.33;;;13.70;99.90;;;12.21;56.53;101605.34;5006330;28;20087;-75
2023/05/02 09:23:56;;;;;;;10.23;2.78;;;13.60;99.90;;;12.29;57.25;101611.19;5000404;28;20534;-77
2023/05/02 09:26:32;;;;;;;11.88;2.22;;;13.50;99.90;;;12.41;56.05;101617.75;5007729;28;20041;-75
2023/05/02 09:29:05;;;;;;;17.88;3.10;;;13.60;99.90;;;12.83;57.15;101623.06;4989612;28;20100;-75
2023/05/02 09:31:38;;;;;;;11.18;3.10;;;13.80;99.90;;;12.96;56.94;101620.78;5002319;28;20075;-75
2023/05/02 09:34:10;;;;;;;17.17;3.03;;;13.80;99.90;;;12.57;57.62;101625.91;5008492;28;20044;-75
2023/05/02 09:36:44;;;;;;;16.65;3.00;;;13.70;99.90;;;12.54;58.56;101639.25;5022563;28;20026;-76
2023/05/02 09:39:15;;;;;;;11.70;3.00;;;13.60;99.90;;;12.27;58.63;101634.16;5001970;28;20084;-75
2023/05/02 09:41:47;;;;;;;14.25;2.75;;;13.30;99.90;;;11.90;59.29;101632.94;5008103;28;20029;-75
2023/05/02 09:44:18;;;;;;;12.07;2.63;;;13.30;99.90;;;12.29;60.89;101635.81;5004595;28;20040;-74
2023/05/02 09:46:49;;;;;;;14.07;3.28;;;13.00;99.90;;;11.44;60.04;101640.69;5007073;28;20034;-75
2023/05/02 09:49:20;;;;;;;12.23;2.20;;;12.70;99.90;;;11.37;62.29;101638.34;5009498;28;20030;-75
2023/05/02 09:51:50;;;;;;;11.70;2.65;;;12.70;99.90;;;11.53;61.32;101639.50;5007595;28;20075;-75
2023/05/02 09:54:35;;;;;;;12.90;2.72;;;12.90;99.90;;;11.94;60.06;101649.50;5009168;28;20025;-76
2023/05/02 09:57:02;;;;;;;16.70;3.20;;;12.90;99.90;;;11.94;59.32;101645.06;5020865;28;20044;-75
2023/05/02 09:59:28;;;;;;;15.10;3.00;;;12.90;99.90;;;11.80;59.81;101645.56;5010862;28;20045;-76
2023/05/02 10:02:12;;;;;;;14.45;3.38;;;12.80;99.90;;;11.66;59.29;101650.47;5007401;28;20026;-75
2023/05/02 10:04:38;;;;;;;9.48;2.50;;;12.70;99.90;;;11.31;59.81;101649.09;5022996;28;20413;-75
2023/05/02 10:07:09;;;;;;;13.20;3.00;;;12.60;99.90;;;11.49;59.94;101653.75;5024547;28;20029;-76
2023/05/02 10:09:37;;;;;;;12.30;2.55;;;12.80;99.90;;;12.04;59.44;101661.44;5014654;28;20186;-75
2023/05/02 10:12:05;;;;;;;9.25;2.92;;;13.00;99.90;;;12.10;56.97;101677.91;5003625;28;20041;-75
2023/05/02 10:14:42;;;;;;;8.55;2.05;;;13.20;99.90;;;12.55;57.96;101692.03;5013959;28;20025;-75
2023/05/02 10:17:26;;;;;;;10.23;2.40;;;13.50;99.90;;;12.82;57.46;101699.78;5008305;28;20046;-75